createdAt,value
2023-05-15T00:01:04.978Z,94478.03
2023-05-15T00:03:31.561Z,94477.84
2023-05-15T00:05:58.020Z,94481.69
2023-05-15T00:08:24.339Z,94487.59
2023-05-15T00:11:00.890Z,94482.94
2023-05-15T00:13:28.097Z,94480.88
2023-05-15T00:15:54.444Z,94486.00
2023-05-15T00:18:20.824Z,94477.25
2023-05-15T00:20:47.147Z,94473.56
2023-05-15T00:23:13.477Z,94473.16
2023-05-15T00:25:39.801Z,94465.22
2023-05-15T00:28:06.114Z,94458.13
2023-05-15T00:30:32.421Z,94458.91
2023-05-15T00:32:58.787Z,94463.19
2023-05-15T00:35:25.321Z,94460.75
2023-05-15T00:37:51.982Z,94455.69
2023-05-15T00:40:18.286Z,94457.88
2023-05-15T00:42:44.596Z,94457.09
2023-05-15T00:45:10.916Z,94453.63
2023-05-15T00:47:37.300Z,94443.66
2023-05-15T00:50:03.636Z,94444.25
2023-05-15T00:52:30.035Z,94451.38
2023-05-15T00:54:56.397Z,94453.63
2023-05-15T00:57:22.708Z,94441.22
2023-05-15T00:59:48.998Z,94442.84
2023-05-15T01:02:15.358Z,94443.47
2023-05-15T01:04:41.691Z,94434.72
2023-05-15T01:07:08.017Z,94436.13
2023-05-15T01:09:34.346Z,94432.47
2023-05-15T01:12:00.676Z,94434.72
2023-05-15T01:14:27.025Z,94441.03
2023-05-15T01:16:53.344Z,94442.22
2023-05-15T01:19:19.786Z,94439.38
2023-05-15T01:21:46.177Z,94444.88
2023-05-15T01:24:12.518Z,94442.22
2023-05-15T01:26:38.842Z,94452.22
2023-05-15T01:29:05.168Z,94459.53
2023-05-15T01:31:31.530Z,94458.72
2023-05-15T01:33:57.865Z,94463.59
2023-05-15T01:36:24.183Z,94463.00
2023-05-15T01:38:50.512Z,94468.28
2023-05-15T01:41:16.842Z,94460.34
2023-05-15T01:43:43.172Z,94448.53
2023-05-15T01:46:09.577Z,94450.97
2023-05-15T01:48:35.939Z,94453.00
2023-05-15T01:51:02.269Z,94449.75
2023-05-15T01:53:28.577Z,94442.44
2023-05-15T01:55:54.900Z,94442.84
2023-05-15T01:58:21.219Z,94437.53
2023-05-15T02:00:47.530Z,94429.44
2023-05-15T02:03:13.909Z,94427.81
2023-05-15T02:05:40.287Z,94424.13
2023-05-15T02:08:06.614Z,94419.06
2023-05-15T02:10:32.947Z,94421.06
2023-05-15T02:12:59.258Z,94421.50
2023-05-15T02:15:25.809Z,94425.56
2023-05-15T02:17:52.340Z,94421.06
2023-05-15T02:20:18.707Z,94427.38
2023-05-15T02:22:45.072Z,94422.91
2023-05-15T02:25:11.397Z,94423.91
2023-05-15T02:27:37.716Z,94425.72
2023-05-15T02:30:04.043Z,94423.09
2023-05-15T02:32:30.456Z,94425.34
2023-05-15T02:34:56.788Z,94425.13
2023-05-15T02:37:23.118Z,94432.03
2023-05-15T02:39:49.460Z,94422.28
2023-05-15T02:42:15.782Z,94419.44
2023-05-15T02:44:42.103Z,94421.50
2023-05-15T02:47:08.442Z,94417.63
2023-05-15T02:49:34.741Z,94422.50
2023-05-15T02:52:01.064Z,94424.75
2023-05-15T02:54:27.378Z,94411.53
2023-05-15T02:56:53.713Z,94424.34
2023-05-15T02:59:20.079Z,94421.06
2023-05-15T03:01:46.430Z,94419.44
2023-05-15T03:04:12.795Z,94423.53
2023-05-15T03:06:39.137Z,94418.41
2023-05-15T03:09:05.465Z,94419.63
2023-05-15T03:11:31.766Z,94421.06
2023-05-15T03:13:58.077Z,94425.34
2023-05-15T03:16:24.418Z,94423.28
2023-05-15T03:18:50.809Z,94415.97
2023-05-15T03:21:17.146Z,94420.84
2023-05-15T03:23:43.462Z,94414.34
2023-05-15T03:26:09.774Z,94417.19
2023-05-15T03:28:36.081Z,94418.81
2023-05-15T03:31:02.415Z,94414.34
2023-05-15T03:33:28.747Z,94412.53
2023-05-15T03:35:55.065Z,94406.22
2023-05-15T03:38:21.391Z,94410.69
2023-05-15T03:40:50.257Z,94411.91
2023-05-15T03:43:17.361Z,94414.94
2023-05-15T03:45:43.681Z,94414.94
2023-05-15T03:48:10.013Z,94414.53
2023-05-15T03:50:36.337Z,94416.16
2023-05-15T03:53:02.643Z,94409.25
2023-05-15T03:55:28.971Z,94410.25
2023-05-15T03:57:55.296Z,94411.91
2023-05-15T04:00:21.621Z,94408.22
2023-05-15T04:02:47.998Z,94404.16
2023-05-15T04:05:14.397Z,94397.06
2023-05-15T04:07:40.731Z,94400.09
2023-05-15T04:10:07.062Z,94401.50
2023-05-15T04:12:33.399Z,94406.16
2023-05-15T04:14:59.712Z,94401.69
2023-05-15T04:17:26.097Z,94407.19
2023-05-15T04:19:52.411Z,94413.88
2023-05-15T04:22:18.739Z,94414.50
2023-05-15T04:24:45.073Z,94420.59
2023-05-15T04:27:11.571Z,94414.94
2023-05-15T04:29:37.909Z,94415.91
2023-05-15T04:32:04.389Z,94418.38
2023-05-15T04:34:30.787Z,94421.59
2023-05-15T04:36:57.106Z,94425.28
2023-05-15T04:39:23.406Z,94422.44
2023-05-15T04:41:49.733Z,94428.13
2023-05-15T04:44:16.076Z,94420.22
2023-05-15T04:46:42.407Z,94425.50
2023-05-15T04:49:08.740Z,94425.94
2023-05-15T04:51:35.069Z,94423.69
2023-05-15T04:54:01.397Z,94430.59
2023-05-15T04:56:27.721Z,94432.84
2023-05-15T04:58:54.037Z,94431.22
2023-05-15T05:01:20.374Z,94431.00
2023-05-15T05:03:46.793Z,94423.47
2023-05-15T05:06:13.158Z,94436.13
2023-05-15T05:08:39.475Z,94431.84
2023-05-15T05:11:05.801Z,94432.44
2023-05-15T05:13:32.124Z,94434.47
2023-05-15T05:15:58.482Z,94435.72
2023-05-15T05:18:24.803Z,94432.03
2023-05-15T05:20:51.124Z,94427.56
2023-05-15T05:23:17.451Z,94420.69
2023-05-15T05:25:43.771Z,94433.28
2023-05-15T05:28:10.099Z,94436.31
2023-05-15T05:30:36.417Z,94445.09
2023-05-15T05:33:02.745Z,94438.16
2023-05-15T05:35:29.088Z,94443.25
2023-05-15T05:37:55.388Z,94436.13
2023-05-15T05:40:21.699Z,94446.72
2023-05-15T05:42:48.016Z,94433.50
2023-05-15T05:45:14.355Z,94439.63
2023-05-15T05:47:40.733Z,94433.69
2023-05-15T05:50:07.056Z,94435.31
2023-05-15T05:52:33.386Z,94432.88
2023-05-15T05:54:59.700Z,94439.41
2023-05-15T05:57:26.025Z,94437.38
2023-05-15T05:59:52.329Z,94437.97
2023-05-15T06:02:18.721Z,94441.84
2023-05-15T06:04:45.095Z,94443.25
2023-05-15T06:07:11.409Z,94441.66
2023-05-15T06:09:37.723Z,94448.38
2023-05-15T06:12:04.034Z,94445.50
2023-05-15T06:14:30.366Z,94447.34
2023-05-15T06:16:56.699Z,94450.19
2023-05-15T06:19:23.046Z,94450.19
2023-05-15T06:21:49.415Z,94453.25
2023-05-15T06:24:15.725Z,94453.63
2023-05-15T06:26:42.043Z,94443.66
2023-05-15T06:29:08.385Z,94447.72
2023-05-15T06:31:34.760Z,94444.47
2023-05-15T06:34:01.111Z,94446.31
2023-05-15T06:36:27.429Z,94449.13
2023-05-15T06:38:53.744Z,94447.88
2023-05-15T06:41:20.073Z,94451.16
2023-05-15T06:43:46.389Z,94461.94
2023-05-15T06:46:12.962Z,94453.78
2023-05-15T06:48:39.353Z,94454.59
2023-05-15T06:51:05.677Z,94450.66
2023-05-15T06:53:31.998Z,94454.31
2023-05-15T06:55:58.311Z,94465.06
2023-05-15T06:58:24.636Z,94458.34
2023-05-15T11:45:21.513Z,94283.50
2023-05-15T11:47:47.873Z,94279.28
2023-05-15T11:50:14.212Z,94273.47
2023-05-15T11:52:40.536Z,94277.50
2023-05-15T11:55:06.850Z,94283.59
2023-05-15T11:57:33.180Z,94283.88
2023-05-15T11:59:59.506Z,94288.69
2023-05-15T12:02:25.866Z,94284.78
2023-05-15T12:04:52.384Z,94287.56
2023-05-15T12:07:18.749Z,94287.72
2023-05-15T12:09:45.095Z,94282.59
2023-05-15T12:12:11.401Z,94280.94
2023-05-15T12:14:37.709Z,94281.72
2023-05-15T12:17:04.041Z,94281.28
2023-05-15T12:19:30.365Z,94275.06
2023-05-15T12:21:56.692Z,94263.28
2023-05-15T12:24:23.037Z,94261.75
2023-05-15T12:26:49.346Z,94262.38
2023-05-15T12:29:15.669Z,94264.56
2023-05-15T12:31:42.046Z,94267.63
2023-05-15T12:34:08.425Z,94270.31
2023-05-15T12:36:34.742Z,94260.19
2023-05-15T12:39:01.085Z,94268.78
2023-05-15T12:41:27.439Z,94260.59
2023-05-15T12:43:53.790Z,94266.50
2023-05-15T12:46:20.205Z,94275.31
2023-05-15T12:48:46.554Z,94267.56
2023-05-15T12:51:12.865Z,94263.78
2023-05-15T12:53:39.211Z,94262.91
2023-05-15T12:56:05.598Z,94271.31
2023-05-15T12:58:31.915Z,94263.31
2023-05-15T13:00:58.267Z,94270.38
2023-05-15T13:03:24.662Z,94272.38
2023-05-15T13:05:50.990Z,94277.31
2023-05-15T13:08:17.303Z,94275.25
2023-05-15T13:10:43.653Z,94273.50
2023-05-15T13:13:09.996Z,94277.03
2023-05-15T13:15:36.386Z,94277.03
2023-05-15T13:18:02.781Z,94280.03
2023-05-15T13:20:29.189Z,94283.25
2023-05-15T13:22:55.495Z,94280.75
2023-05-15T13:25:21.840Z,94285.38
2023-05-15T13:27:48.187Z,94281.56
2023-05-15T13:30:14.623Z,94278.78
2023-05-15T13:32:40.992Z,94285.25
2023-05-15T13:35:07.322Z,94290.84
2023-05-15T13:37:33.647Z,94291.53
2023-05-15T13:40:00.030Z,94284.25
2023-05-15T13:42:26.352Z,94292.69
2023-05-15T13:44:52.675Z,94294.47
2023-05-15T13:47:19.090Z,94293.69
2023-05-15T13:49:45.426Z,94283.88
2023-05-15T13:52:11.756Z,94292.34
2023-05-15T13:54:38.080Z,94274.66
2023-05-15T13:57:04.408Z,94286.53
2023-05-15T13:59:30.740Z,94287.69
2023-05-15T14:01:57.092Z,94278.88
2023-05-15T14:04:23.543Z,94279.88
2023-05-15T14:06:49.910Z,94288.84
2023-05-15T14:09:16.234Z,94287.13
2023-05-15T14:11:42.807Z,94286.22
2023-05-15T14:14:09.141Z,94285.91
2023-05-15T14:16:35.514Z,94287.47
2023-05-15T14:19:01.891Z,94285.66
2023-05-15T14:21:28.229Z,94290.09
2023-05-15T14:23:54.529Z,94282.41
2023-05-15T14:26:20.849Z,94285.25
2023-05-15T14:28:47.193Z,94279.41
2023-05-15T14:31:13.567Z,94280.06
2023-05-15T14:36:06.148Z,94277.56
2023-05-15T14:38:32.488Z,94293.19
2023-05-15T14:40:58.826Z,94292.69
2023-05-15T14:43:25.146Z,94294.81
2023-05-15T14:45:51.547Z,94301.69
2023-05-15T14:48:17.892Z,94304.13
2023-05-15T14:50:44.204Z,94305.06
2023-05-15T14:53:10.522Z,94303.75
2023-05-15T14:55:36.860Z,94302.16
2023-05-15T14:58:03.196Z,94307.03
2023-05-15T15:00:29.554Z,94303.81
2023-05-15T15:02:55.985Z,94304.19
2023-05-15T15:05:22.391Z,94305.56
2023-05-15T15:07:48.690Z,94306.84
2023-05-15T15:10:14.997Z,94314.38
2023-05-15T15:12:41.306Z,94304.50
2023-05-15T15:15:07.612Z,94308.63
2023-05-15T15:17:33.956Z,94313.31
2023-05-15T15:20:00.350Z,94310.91
2023-05-15T15:22:26.655Z,94313.56
2023-05-15T15:24:52.997Z,94318.66
2023-05-15T15:27:19.334Z,94321.44
2023-05-15T15:29:45.662Z,94314.63
2023-05-15T15:32:12.050Z,94330.31
2023-05-15T15:34:38.436Z,94324.97
2023-05-15T15:37:04.757Z,94326.28
2023-05-15T15:39:31.061Z,94324.31
2023-05-15T15:41:57.369Z,94331.31
2023-05-15T15:44:23.693Z,94327.34
2023-05-15T15:46:50.010Z,94327.41
2023-05-15T15:49:16.368Z,94331.56
2023-05-15T15:51:42.735Z,94327.09
2023-05-15T15:54:09.106Z,94331.31
2023-05-15T15:56:35.438Z,94334.63
2023-05-15T15:59:01.748Z,94340.19
2023-05-15T16:01:28.108Z,94336.22
2023-05-15T16:03:54.530Z,94339.69
2023-05-15T16:06:20.867Z,94345.31
2023-05-15T16:08:47.187Z,94349.34
2023-05-15T16:11:13.536Z,94350.53
2023-05-15T16:13:41.074Z,94349.06
2023-05-15T16:16:07.635Z,94349.97
2023-05-15T16:18:33.993Z,94348.56
2023-05-15T16:21:00.329Z,94358.31
2023-05-15T16:23:26.637Z,94361.06
2023-05-15T16:25:52.965Z,94364.66
2023-05-15T16:28:19.285Z,94361.88
2023-05-15T16:30:49.452Z,94368.50
2023-05-15T16:33:16.214Z,94359.88
2023-05-15T16:35:42.579Z,94365.94
2023-05-15T16:38:08.922Z,94360.34
2023-05-15T16:40:35.261Z,94365.00
2023-05-15T16:43:01.580Z,94352.84
2023-05-15T16:45:27.905Z,94359.13
2023-05-15T16:47:54.290Z,94363.16
2023-05-15T16:50:20.733Z,94359.75
2023-05-15T16:52:47.109Z,94360.88
2023-05-15T16:55:13.496Z,94356.13
2023-05-15T16:57:39.805Z,94352.19
2023-05-15T17:00:06.129Z,94356.03
2023-05-15T17:02:32.525Z,94357.50
2023-05-15T17:04:58.905Z,94355.31
2023-05-15T17:07:25.228Z,94369.09
2023-05-15T17:09:51.543Z,94362.63
2023-05-15T17:12:17.856Z,94365.91
2023-05-15T17:14:44.175Z,94373.97
2023-05-15T17:17:10.487Z,94372.41
2023-05-15T17:19:36.811Z,94373.75
2023-05-15T17:22:03.111Z,94383.94
2023-05-15T17:24:38.823Z,94372.44
2023-05-15T17:27:15.699Z,94383.78
2023-05-15T17:29:42.061Z,94392.34
2023-05-15T17:32:08.482Z,94395.22
2023-05-15T17:34:34.901Z,94394.81
2023-05-15T17:37:01.248Z,94393.56
2023-05-15T17:39:27.555Z,94396.22
2023-05-15T17:41:53.878Z,94406.97
2023-05-15T17:44:20.209Z,94405.00
2023-05-15T17:46:46.520Z,94403.22
2023-05-15T17:49:12.832Z,94401.06
2023-05-15T17:51:39.138Z,94395.38
2023-05-15T17:54:05.491Z,94394.22
2023-05-15T17:56:31.803Z,94400.25
2023-05-15T17:58:58.114Z,94398.19
2023-05-15T18:01:24.492Z,94396.78
2023-05-15T18:03:50.834Z,94395.22
2023-05-15T18:06:17.152Z,94392.94
2023-05-15T18:08:43.471Z,94391.31
2023-05-15T18:11:21.525Z,94389.91
2023-05-15T18:13:48.951Z,94393.59
2023-05-15T18:16:15.320Z,94400.59
2023-05-15T18:18:41.670Z,94405.16
2023-05-15T18:21:08.021Z,94392.69
2023-05-15T18:23:34.360Z,94396.25
2023-05-15T18:26:00.710Z,94402.59
2023-05-15T18:28:27.032Z,94409.47
2023-05-15T18:30:53.338Z,94401.97
2023-05-15T18:33:19.671Z,94407.63
2023-05-15T18:35:45.973Z,94412.94
2023-05-15T18:38:12.308Z,94407.22
2023-05-15T18:40:38.650Z,94413.69
2023-05-15T18:43:04.970Z,94413.47
2023-05-15T18:45:31.284Z,94416.66
2023-05-15T18:47:57.621Z,94414.03
2023-05-15T18:50:23.988Z,94417.66
2023-05-15T18:52:50.320Z,94415.00
2023-05-15T18:55:16.636Z,94416.91
2023-05-15T18:57:42.958Z,94421.06
2023-05-15T19:00:09.278Z,94412.06
2023-05-15T19:02:35.619Z,94416.34
2023-05-15T19:05:01.967Z,94418.31
2023-05-15T19:07:28.290Z,94411.13
2023-05-15T19:09:54.617Z,94408.66
2023-05-15T19:12:20.934Z,94411.50
2023-05-15T19:14:47.268Z,94411.34
2023-05-15T19:17:13.630Z,94412.81
2023-05-15T19:19:39.941Z,94406.16
2023-05-15T19:22:06.284Z,94414.31
2023-05-15T19:24:33.631Z,94420.03
2023-05-15T19:27:00.090Z,94418.41
2023-05-15T19:29:26.459Z,94417.97
2023-05-15T19:31:52.809Z,94415.31
2023-05-15T19:34:19.138Z,94410.06
2023-05-15T19:36:45.443Z,94417.66
2023-05-15T19:39:11.772Z,94415.63
2023-05-15T19:41:38.114Z,94422.13
2023-05-15T19:44:04.546Z,94419.06
2023-05-15T19:46:30.988Z,94424.59
2023-05-15T19:48:57.346Z,94418.88
2023-05-15T19:51:23.650Z,94428.91
2023-05-15T19:53:49.983Z,94428.47
2023-05-15T19:56:16.296Z,94431.94
2023-05-15T19:58:42.621Z,94432.75
2023-05-15T20:01:09.008Z,94430.31
2023-05-15T20:03:35.718Z,94430.09
2023-05-15T20:06:02.127Z,94428.09
2023-05-15T20:08:28.469Z,94428.75
2023-05-15T20:10:54.776Z,94429.97
2023-05-15T20:13:21.119Z,94436.03
2023-05-15T20:15:47.462Z,94436.41
2023-05-15T20:18:13.908Z,94432.56
2023-05-15T20:20:40.249Z,94424.19
2023-05-15T20:23:06.567Z,94417.28
2023-05-15T20:25:32.883Z,94416.28
2023-05-15T20:27:59.221Z,94425.47
2023-05-15T20:30:25.621Z,94418.56
2023-05-15T20:32:52.095Z,94418.78
2023-05-15T20:35:18.505Z,94421.84
2023-05-15T20:37:44.835Z,94425.94
2023-05-15T20:40:11.157Z,94417.59
2023-05-15T20:42:37.481Z,94418.66
2023-05-15T20:45:03.812Z,94424.38
2023-05-15T20:47:30.196Z,94421.09
2023-05-15T20:49:56.505Z,94422.53
2023-05-15T20:52:22.855Z,94422.72
2023-05-15T20:54:49.167Z,94424.81
2023-05-15T20:57:15.474Z,94428.25
2023-05-15T20:59:41.811Z,94428.25
2023-05-15T21:02:08.138Z,94434.19
2023-05-15T21:04:34.449Z,94430.69
2023-05-15T21:07:00.773Z,94434.59
2023-05-15T21:09:27.117Z,94432.97
2023-05-15T21:11:53.438Z,94428.91
2023-05-15T21:14:19.763Z,94433.00
2023-05-15T21:16:46.103Z,94421.59
2023-05-15T21:19:12.456Z,94424.63
2023-05-15T21:21:38.843Z,94428.31
2023-05-15T21:24:05.153Z,94426.94
2023-05-15T21:26:31.485Z,94429.19
2023-05-15T21:28:57.792Z,94416.56
2023-05-15T21:31:24.132Z,94418.19
2023-05-15T21:33:50.477Z,94418.78
2023-05-15T21:36:16.804Z,94426.94
2023-05-15T21:38:43.129Z,94423.09
2023-05-15T21:41:09.441Z,94419.84
2023-05-15T21:43:35.757Z,94419.63
2023-05-15T21:46:02.099Z,94411.06
2023-05-15T21:48:28.502Z,94415.13
2023-05-15T21:50:54.826Z,94420.44
2023-05-15T21:53:21.154Z,94415.16
2023-05-15T21:55:47.464Z,94424.69
2023-05-15T21:58:13.786Z,94422.44
2023-05-15T22:00:40.111Z,94419.63
2023-05-15T22:03:06.539Z,94423.03
2023-05-15T22:05:32.892Z,94415.72
2023-05-15T22:07:59.210Z,94410.59
2023-05-15T22:10:25.697Z,94415.91
2023-05-15T22:12:52.192Z,94412.84
2023-05-15T22:15:18.588Z,94413.66
2023-05-15T22:17:44.922Z,94406.75
2023-05-15T22:20:11.262Z,94408.97
2023-05-15T22:22:37.596Z,94408.97
2023-05-15T22:25:03.910Z,94404.31
2023-05-15T22:27:30.237Z,94415.06
2023-05-15T22:29:56.549Z,94411.03
2023-05-15T22:32:22.914Z,94401.69
2023-05-15T22:34:49.254Z,94411.03
2023-05-15T22:37:15.560Z,94410.06
2023-05-15T22:39:41.893Z,94410.03
2023-05-15T22:42:08.213Z,94409.22
2023-05-15T22:44:34.532Z,94402.13
2023-05-15T22:47:00.859Z,94400.06
2023-05-15T22:49:27.177Z,94397.22
2023-05-15T22:51:53.498Z,94396.81
2023-05-15T22:54:19.807Z,94400.28
2023-05-15T22:56:46.657Z,94395.59
2023-05-15T22:59:12.979Z,94397.59
2023-05-15T23:01:39.348Z,94382.56
2023-05-15T23:04:05.781Z,94385.00
2023-05-15T23:06:32.149Z,94384.59
2023-05-15T23:08:58.461Z,94381.13
2023-05-15T23:11:24.775Z,94381.53
2023-05-15T23:13:51.097Z,94383.97
2023-05-15T23:16:17.467Z,94381.31
2023-05-15T23:18:43.880Z,94379.09
2023-05-15T23:21:10.213Z,94377.44
2023-05-15T23:23:36.553Z,94382.72
2023-05-15T23:26:02.881Z,94380.31
2023-05-15T23:28:29.198Z,94383.38
2023-05-15T23:30:55.588Z,94373.59
2023-05-15T23:33:21.957Z,94374.00
2023-05-15T23:35:48.274Z,94378.47
2023-05-15T23:38:14.599Z,94373.00
2023-05-15T23:40:40.918Z,94377.06
2023-05-15T23:43:07.255Z,94386.25
2023-05-15T23:45:33.652Z,94386.03
2023-05-15T23:48:00.126Z,94384.78
2023-05-15T23:50:26.843Z,94375.22
2023-05-15T23:52:53.370Z,94376.63
2023-05-15T23:55:19.694Z,94365.00
2023-05-15T23:57:46.029Z,94367.72
